De Soto, Kansas
Current Conditions -  °F | °C
As of 11:53 PM on Wednesday 28 Jan 2015 (Local Time) from KIXD Reporting Station
Clear Clear  
Wind Chill: 54°   Ceiling: Unl
Heat Index: 54°   Visibility: 10mi
Dew Point: 36°   Wind: 13mph
Humidity: 51%   Direction: 320°NW
Pressure: 29.88"   Gusts: NA
Location:  38.98°N, 94.97°W
Report Text: KIXD 290553Z AUTO 32011KT 10SM CLR 12/02 A2988 RMK AO2 PK WND 32027/0519 SLP113 T01220022 10183 20111 402330050 53030
Loading
Personal Weather Stations






























Interactive Weather Map New forecast layout! Learn more

10-Day Weather Forecast

Advertisements
Track Severe Weather on mobile